DIE weather

Arrachart Airport
Antsiranana, Madagascar

Public forecast

Using degrees Celsius for public forecast. Weather courtesy of forecast.io.

Current aviation weather report (METAR) for Arrachart Airport

Retrieved 2019/10/23 12:00 UTC (25 seconds ago):

FMNA 231200Z 12016KT 9999 SCT020 31/19 Q1011

Aviation forecast (TAF) for Arrachart Airport

Retrieved 2019/10/23 12:21 UTC (0 seconds ago):

TAF FMNA 231100Z 2312/2412 12013KT 9999 SCT020 PROB30 TEMPO 2320/2406 4500 SHRA